sensor_id;sensor_type;location;lat;lon;timestamp;pressure;altitude;pressure_sealevel;temperature;humidity
37878;BME280;23715;53.652;8.516;2023-04-10T00:04:18;102508.20;;;9.17;100.00
37878;BME280;23715;53.652;8.516;2023-04-10T00:09:20;102490.70;;;9.35;100.00
37878;BME280;23715;53.652;8.516;2023-04-10T00:14:20;102483.53;;;9.35;100.00
37878;BME280;23715;53.652;8.516;2023-04-10T00:19:23;102487.70;;;9.08;100.00
37878;BME280;23715;53.652;8.516;2023-04-10T00:24:27;102482.59;;;9.03;100.00
37878;BME280;23715;53.652;8.516;2023-04-10T00:29:27;102477.16;;;8.61;100.00
37878;BME280;23715;53.652;8.516;2023-04-10T00:34:27;102479.84;;;8.44;100.00
37878;BME280;23715;53.652;8.516;2023-04-10T00:39:27;102471.58;;;8.66;100.00
37878;BME280;23715;53.652;8.516;2023-04-10T00:44:28;102474.10;;;8.43;100.00
37878;BME280;23715;53.652;8.516;2023-04-10T00:49:27;102467.14;;;8.38;100.00
37878;BME280;23715;53.652;8.516;2023-04-10T00:54:33;102448.22;;;8.59;100.00
37878;BME280;23715;53.652;8.516;2023-04-10T00:59:30;102447.36;;;8.67;100.00
37878;BME280;23715;53.652;8.516;2023-04-10T01:04:31;102439.84;;;8.74;100.00
37878;BME280;23715;53.652;8.516;2023-04-10T01:14:58;102428.29;;;8.98;100.00
37878;BME280;23715;53.652;8.516;2023-04-10T01:25:27;102416.66;;;9.06;100.00
37878;BME280;23715;53.652;8.516;2023-04-10T01:30:23;102414.03;;;9.13;100.00
37878;BME280;23715;53.652;8.516;2023-04-10T01:35:26;102409.85;;;9.16;100.00
37878;BME280;23715;53.652;8.516;2023-04-10T01:40:31;102404.64;;;9.13;100.00
37878;BME280;23715;53.652;8.516;2023-04-10T01:45:33;102406.82;;;9.23;100.00
37878;BME280;23715;53.652;8.516;2023-04-10T01:50:35;102399.39;;;9.28;100.00
37878;BME280;23715;53.652;8.516;2023-04-10T01:55:37;102391.77;;;9.36;100.00
37878;BME280;23715;53.652;8.516;2023-04-10T02:00:42;102384.43;;;9.31;100.00
37878;BME280;23715;53.652;8.516;2023-04-10T02:11:33;102371.49;;;9.30;100.00
37878;BME280;23715;53.652;8.516;2023-04-10T02:16:21;102369.45;;;9.27;100.00
37878;BME280;23715;53.652;8.516;2023-04-10T02:21:22;102363.47;;;9.22;100.00
37878;BME280;23715;53.652;8.516;2023-04-10T02:26:22;102356.33;;;9.13;100.00
37878;BME280;23715;53.652;8.516;2023-04-10T02:31:23;102355.41;;;9.06;100.00
37878;BME280;23715;53.652;8.516;2023-04-10T02:36:23;102347.23;;;9.16;100.00
37878;BME280;23715;53.652;8.516;2023-04-10T02:41:26;102338.11;;;9.11;100.00
37878;BME280;23715;53.652;8.516;2023-04-10T02:46:26;102336.41;;;9.02;100.00
37878;BME280;23715;53.652;8.516;2023-04-10T02:51:26;102334.16;;;8.94;100.00
37878;BME280;23715;53.652;8.516;2023-04-10T02:56:27;102329.86;;;8.83;100.00
37878;BME280;23715;53.652;8.516;2023-04-10T03:01:27;102327.81;;;8.79;100.00
37878;BME280;23715;53.652;8.516;2023-04-10T03:06:28;102326.48;;;8.70;100.00
37878;BME280;23715;53.652;8.516;2023-04-10T03:11:29;102328.17;;;8.64;100.00
37878;BME280;23715;53.652;8.516;2023-04-10T03:16:32;102331.26;;;8.65;100.00
37878;BME280;23715;53.652;8.516;2023-04-10T03:21:33;102322.51;;;8.62;100.00
37878;BME280;23715;53.652;8.516;2023-04-10T03:26:43;102313.84;;;8.56;100.00
37878;BME280;23715;53.652;8.516;2023-04-10T03:31:41;102311.57;;;8.49;100.00
37878;BME280;23715;53.652;8.516;2023-04-10T03:36:43;102308.97;;;8.38;100.00
37878;BME280;23715;53.652;8.516;2023-04-10T03:41:46;102305.33;;;8.39;100.00
37878;BME280;23715;53.652;8.516;2023-04-10T03:46:47;102301.30;;;8.39;100.00
37878;BME280;23715;53.652;8.516;2023-04-10T03:51:49;102303.46;;;8.33;100.00
37878;BME280;23715;53.652;8.516;2023-04-10T03:56:53;102302.50;;;8.25;100.00
37878;BME280;23715;53.652;8.516;2023-04-10T04:01:53;102295.27;;;8.27;100.00
37878;BME280;23715;53.652;8.516;2023-04-10T04:06:53;102305.84;;;8.21;100.00
37878;BME280;23715;53.652;8.516;2023-04-10T04:12:04;102296.53;;;8.20;100.00
37878;BME280;23715;53.652;8.516;2023-04-10T04:17:22;102303.16;;;8.13;100.00
37878;BME280;23715;53.652;8.516;2023-04-10T04:22:27;102299.77;;;8.18;100.00
37878;BME280;23715;53.652;8.516;2023-04-10T04:27:38;102292.19;;;8.17;100.00
37878;BME280;23715;53.652;8.516;2023-04-10T04:32:42;102296.69;;;8.17;100.00
37878;BME280;23715;53.652;8.516;2023-04-10T04:37:47;102296.91;;;8.21;100.00
37878;BME280;23715;53.652;8.516;2023-04-10T04:43:05;102300.96;;;8.12;100.00
37878;BME280;23715;53.652;8.516;2023-04-10T04:48:23;102293.86;;;8.20;100.00
37878;BME280;23715;53.652;8.516;2023-04-10T04:53:27;102293.38;;;8.20;100.00
37878;BME280;23715;53.652;8.516;2023-04-10T04:58:35;102284.25;;;8.16;100.00
37878;BME280;23715;53.652;8.516;2023-04-10T05:03:42;102280.45;;;8.20;100.00
37878;BME280;23715;53.652;8.516;2023-04-10T05:08:46;102286.93;;;8.16;100.00
37878;BME280;23715;53.652;8.516;2023-04-10T05:14:02;102279.05;;;8.21;100.00
37878;BME280;23715;53.652;8.516;2023-04-10T05:19:16;102273.05;;;8.16;100.00
37878;BME280;23715;53.652;8.516;2023-04-10T05:24:34;102265.16;;;8.22;100.00
37878;BME280;23715;53.652;8.516;2023-04-10T05:29:52;102258.20;;;8.27;100.00
37878;BME280;23715;53.652;8.516;2023-04-10T05:35:12;102253.17;;;8.29;100.00
37878;BME280;23715;53.652;8.516;2023-04-10T05:40:25;102255.29;;;8.31;100.00
37878;BME280;23715;53.652;8.516;2023-04-10T05:45:42;102246.98;;;8.36;100.00
37878;BME280;23715;53.652;8.516;2023-04-10T05:50:56;102246.59;;;8.44;100.00
37878;BME280;23715;53.652;8.516;2023-04-10T05:56:03;102247.94;;;8.44;100.00
37878;BME280;23715;53.652;8.516;2023-04-10T06:01:21;102241.08;;;8.47;100.00
37878;BME280;23715;53.652;8.516;2023-04-10T06:06:24;102246.78;;;8.65;100.00
37878;BME280;23715;53.652;8.516;2023-04-10T06:11:24;102241.20;;;8.77;100.00
37878;BME280;23715;53.652;8.516;2023-04-10T06:16:26;102232.38;;;8.75;100.00
37878;BME280;23715;53.652;8.516;2023-04-10T06:21:30;102233.14;;;8.93;100.00
37878;BME280;23715;53.652;8.516;2023-04-10T06:26:30;102235.51;;;9.06;100.00
37878;BME280;23715;53.652;8.516;2023-04-10T06:31:34;102220.53;;;9.48;100.00
37878;BME280;23715;53.652;8.516;2023-04-10T06:36:34;102216.75;;;9.67;100.00
37878;BME280;23715;53.652;8.516;2023-04-10T06:41:39;102208.16;;;9.83;100.00
37878;BME280;23715;53.652;8.516;2023-04-10T06:46:41;102208.92;;;10.00;100.00
37878;BME280;23715;53.652;8.516;2023-04-10T06:51:44;102193.98;;;10.17;100.00
37878;BME280;23715;53.652;8.516;2023-04-10T06:56:49;102195.34;;;10.39;100.00
37878;BME280;23715;53.652;8.516;2023-04-10T07:01:50;102194.84;;;10.53;100.00
37878;BME280;23715;53.652;8.516;2023-04-10T07:06:51;102181.47;;;10.66;100.00
37878;BME280;23715;53.652;8.516;2023-04-10T07:11:52;102180.31;;;10.90;100.00
37878;BME280;23715;53.652;8.516;2023-04-10T07:16:52;102171.63;;;11.00;100.00
37878;BME280;23715;53.652;8.516;2023-04-10T07:21:54;102161.77;;;11.13;100.00
37878;BME280;23715;53.652;8.516;2023-04-10T07:26:55;102151.14;;;11.24;100.00
37878;BME280;23715;53.652;8.516;2023-04-10T07:31:57;102139.05;;;11.37;100.00
37878;BME280;23715;53.652;8.516;2023-04-10T07:37:04;102140.48;;;11.56;100.00
37878;BME280;23715;53.652;8.516;2023-04-10T07:42:10;102133.67;;;11.63;100.00
37878;BME280;23715;53.652;8.516;2023-04-10T07:47:06;102117.84;;;11.84;100.00
37878;BME280;23715;53.652;8.516;2023-04-10T07:52:07;102115.90;;;11.99;100.00
37878;BME280;23715;53.652;8.516;2023-04-10T07:57:09;102107.17;;;12.26;100.00
37878;BME280;23715;53.652;8.516;2023-04-10T08:02:09;102103.88;;;12.28;100.00
37878;BME280;23715;53.652;8.516;2023-04-10T08:07:12;102092.58;;;12.29;100.00
37878;BME280;23715;53.652;8.516;2023-04-10T08:12:13;102077.42;;;12.52;100.00
37878;BME280;23715;53.652;8.516;2023-04-10T08:17:30;102066.88;;;12.79;100.00
37878;BME280;23715;53.652;8.516;2023-04-10T08:22:17;102065.77;;;13.17;100.00
37878;BME280;23715;53.652;8.516;2023-04-10T08:27:24;102058.70;;;13.38;100.00
37878;BME280;23715;53.652;8.516;2023-04-10T08:32:24;102052.83;;;13.56;100.00
37878;BME280;23715;53.652;8.516;2023-04-10T08:37:25;102033.55;;;13.77;100.00
37878;BME280;23715;53.652;8.516;2023-04-10T08:42:27;102040.78;;;13.82;100.00
37878;BME280;23715;53.652;8.516;2023-04-10T08:47:29;102019.61;;;14.10;100.00
37878;BME280;23715;53.652;8.516;2023-04-10T08:52:33;102014.91;;;14.23;100.00
37878;BME280;23715;53.652;8.516;2023-04-10T08:57:37;102007.36;;;14.38;100.00
37878;BME280;23715;53.652;8.516;2023-04-10T09:02:40;102006.48;;;14.38;100.00
37878;BME280;23715;53.652;8.516;2023-04-10T09:07:41;101981.83;;;14.52;100.00
37878;BME280;23715;53.652;8.516;2023-04-10T09:12:49;101968.53;;;14.81;100.00
37878;BME280;23715;53.652;8.516;2023-04-10T09:17:57;101970.13;;;14.84;100.00
37878;BME280;23715;53.652;8.516;2023-04-10T09:22:57;101944.09;;;14.72;100.00
37878;BME280;23715;53.652;8.516;2023-04-10T09:33:31;101931.97;;;15.33;100.00
37878;BME280;23715;53.652;8.516;2023-04-10T09:38:36;101921.66;;;15.12;100.00
37878;BME280;23715;53.652;8.516;2023-04-10T09:43:38;101917.27;;;15.36;100.00
37878;BME280;23715;53.652;8.516;2023-04-10T09:48:45;101898.85;;;15.55;100.00
37878;BME280;23715;53.652;8.516;2023-04-10T09:53:49;101887.17;;;15.64;100.00
37878;BME280;23715;53.652;8.516;2023-04-10T09:58:58;101879.23;;;15.57;100.00
37878;BME280;23715;53.652;8.516;2023-04-10T10:04:02;101869.18;;;15.63;100.00
37878;BME280;23715;53.652;8.516;2023-04-10T10:09:04;101853.77;;;15.89;100.00
37878;BME280;23715;53.652;8.516;2023-04-10T10:14:16;101830.13;;;16.05;100.00
37878;BME280;23715;53.652;8.516;2023-04-10T10:24:27;101826.36;;;16.02;100.00
37878;BME280;23715;53.652;8.516;2023-04-10T10:29:32;101809.63;;;16.06;100.00
37878;BME280;23715;53.652;8.516;2023-04-10T10:34:38;101805.41;;;16.17;100.00
37878;BME280;23715;53.652;8.516;2023-04-10T10:40:00;101798.55;;;16.23;100.00
37878;BME280;23715;53.652;8.516;2023-04-10T10:45:29;101782.97;;;16.25;100.00
37878;BME280;23715;53.652;8.516;2023-04-10T10:50:53;101784.12;;;16.23;100.00
37878;BME280;23715;53.652;8.516;2023-04-10T11:01:20;101751.33;;;16.20;100.00
37878;BME280;23715;53.652;8.516;2023-04-10T11:06:47;101757.27;;;16.19;100.00
37878;BME280;23715;53.652;8.516;2023-04-10T11:12:01;101733.41;;;16.47;100.00
37878;BME280;23715;53.652;8.516;2023-04-10T11:16:47;101726.58;;;16.56;100.00
37878;BME280;23715;53.652;8.516;2023-04-10T11:22:10;101726.77;;;16.73;94.46
37878;BME280;23715;53.652;8.516;2023-04-10T11:27:54;101709.60;;;16.82;99.84
37878;BME280;23715;53.652;8.516;2023-04-10T11:33:22;101698.93;;;16.98;99.74
37878;BME280;23715;53.652;8.516;2023-04-10T11:38:28;101706.15;;;16.80;93.62
37878;BME280;23715;53.652;8.516;2023-04-10T11:43:29;101681.32;;;16.47;95.03
37878;BME280;23715;53.652;8.516;2023-04-10T11:48:33;101677.13;;;16.67;95.71
37878;BME280;23715;53.652;8.516;2023-04-10T11:53:35;101668.20;;;16.56;93.19
37878;BME280;23715;53.652;8.516;2023-04-10T11:58:35;101646.52;;;16.61;99.23
37878;BME280;23715;53.652;8.516;2023-04-10T12:03:37;101648.59;;;16.81;95.22
37878;BME280;23715;53.652;8.516;2023-04-10T12:08:46;101637.72;;;16.90;95.06
37878;BME280;23715;53.652;8.516;2023-04-10T12:13:50;101636.88;;;16.80;90.28
37878;BME280;23715;53.652;8.516;2023-04-10T12:18:50;101625.75;;;17.01;93.40
37878;BME280;23715;53.652;8.516;2023-04-10T12:23:52;101605.37;;;17.01;91.77
37878;BME280;23715;53.652;8.516;2023-04-10T12:28:55;101601.08;;;17.34;92.52
37878;BME280;23715;53.652;8.516;2023-04-10T12:34:02;101574.73;;;17.57;93.76
37878;BME280;23715;53.652;8.516;2023-04-10T12:39:20;101559.76;;;17.31;90.30
37878;BME280;23715;53.652;8.516;2023-04-10T12:44:12;101550.27;;;17.35;89.90
37878;BME280;23715;53.652;8.516;2023-04-10T12:49:16;101547.16;;;17.52;88.70
37878;BME280;23715;53.652;8.516;2023-04-10T12:59:36;101529.52;;;17.60;88.66
37878;BME280;23715;53.652;8.516;2023-04-10T13:04:38;101529.03;;;17.34;83.37
37878;BME280;23715;53.652;8.516;2023-04-10T13:09:41;101511.76;;;17.17;79.12
37878;BME280;23715;53.652;8.516;2023-04-10T13:14:42;101497.99;;;17.15;80.86
37878;BME280;23715;53.652;8.516;2023-04-10T13:19:42;101493.55;;;17.14;80.92
37878;BME280;23715;53.652;8.516;2023-04-10T13:24:43;101472.91;;;17.25;79.45
37878;BME280;23715;53.652;8.516;2023-04-10T13:29:45;101452.63;;;17.46;80.42
37878;BME280;23715;53.652;8.516;2023-04-10T13:34:45;101456.65;;;17.37;76.45
37878;BME280;23715;53.652;8.516;2023-04-10T13:39:54;101440.39;;;17.46;78.34
37878;BME280;23715;53.652;8.516;2023-04-10T13:44:51;101431.20;;;17.47;79.44
37878;BME280;23715;53.652;8.516;2023-04-10T13:49:53;101417.00;;;17.61;79.67
37878;BME280;23715;53.652;8.516;2023-04-10T13:54:56;101409.84;;;17.56;79.14
37878;BME280;23715;53.652;8.516;2023-04-10T14:00:05;101412.45;;;17.31;74.35
37878;BME280;23715;53.652;8.516;2023-04-10T14:05:11;101385.70;;;17.18;74.49
37878;BME280;23715;53.652;8.516;2023-04-10T14:10:16;101377.27;;;17.30;74.56
37878;BME280;23715;53.652;8.516;2023-04-10T14:15:18;101389.17;;;17.29;75.13
37878;BME280;23715;53.652;8.516;2023-04-10T14:20:20;101362.22;;;17.44;75.59
37878;BME280;23715;53.652;8.516;2023-04-10T14:30:34;101321.81;;;17.65;75.11
37878;BME280;23715;53.652;8.516;2023-04-10T14:35:36;101312.30;;;17.57;75.82
37878;BME280;23715;53.652;8.516;2023-04-10T14:40:36;101300.53;;;17.52;76.64
37878;BME280;23715;53.652;8.516;2023-04-10T14:45:39;101289.75;;;17.26;75.22
37878;BME280;23715;53.652;8.516;2023-04-10T14:50:40;101272.49;;;17.40;77.81
37878;BME280;23715;53.652;8.516;2023-04-10T14:55:40;101267.22;;;17.42;76.98
37878;BME280;23715;53.652;8.516;2023-04-10T15:00:40;101267.22;;;17.50;76.49
37878;BME280;23715;53.652;8.516;2023-04-10T15:05:42;101278.55;;;17.25;75.93
37878;BME280;23715;53.652;8.516;2023-04-10T15:10:42;101263.06;;;17.13;76.37
37878;BME280;23715;53.652;8.516;2023-04-10T15:15:44;101253.78;;;17.32;78.06
37878;BME280;23715;53.652;8.516;2023-04-10T15:20:46;101239.83;;;17.31;79.40
37878;BME280;23715;53.652;8.516;2023-04-10T15:25:46;101225.86;;;17.14;78.47
37878;BME280;23715;53.652;8.516;2023-04-10T15:30:46;101220.88;;;16.97;81.24
37878;BME280;23715;53.652;8.516;2023-04-10T15:35:49;101209.17;;;16.92;83.09
37878;BME280;23715;53.652;8.516;2023-04-10T15:40:51;101206.77;;;16.89;82.82
37878;BME280;23715;53.652;8.516;2023-04-10T15:45:51;101189.13;;;16.97;83.92
37878;BME280;23715;53.652;8.516;2023-04-10T15:50:51;101181.34;;;17.07;84.02
37878;BME280;23715;53.652;8.516;2023-04-10T15:55:51;101167.59;;;17.12;81.23
37878;BME280;23715;53.652;8.516;2023-04-10T16:00:54;101157.56;;;17.05;82.73
37878;BME280;23715;53.652;8.516;2023-04-10T16:05:56;101130.39;;;17.01;82.39
37878;BME280;23715;53.652;8.516;2023-04-10T16:10:56;101116.81;;;17.05;81.18
37878;BME280;23715;53.652;8.516;2023-04-10T16:15:56;101118.68;;;17.04;83.11
37878;BME280;23715;53.652;8.516;2023-04-10T16:20:59;101110.53;;;17.00;82.48
37878;BME280;23715;53.652;8.516;2023-04-10T16:25:59;101106.30;;;17.02;81.45
37878;BME280;23715;53.652;8.516;2023-04-10T16:30:59;101098.47;;;16.94;81.79
37878;BME280;23715;53.652;8.516;2023-04-10T16:35:59;101095.59;;;17.00;83.80
37878;BME280;23715;53.652;8.516;2023-04-10T16:41:04;101089.28;;;17.00;84.25
37878;BME280;23715;53.652;8.516;2023-04-10T16:46:04;101071.98;;;17.01;84.43
37878;BME280;23715;53.652;8.516;2023-04-10T16:51:07;101070.27;;;16.91;85.77
37878;BME280;23715;53.652;8.516;2023-04-10T16:56:11;101064.67;;;16.97;86.44
37878;BME280;23715;53.652;8.516;2023-04-10T17:01:21;101056.98;;;16.80;85.81
37878;BME280;23715;53.652;8.516;2023-04-10T17:06:25;101055.25;;;16.58;86.54
37878;BME280;23715;53.652;8.516;2023-04-10T17:11:25;101042.88;;;16.81;86.97
37878;BME280;23715;53.652;8.516;2023-04-10T17:16:25;101035.09;;;16.82;87.88
37878;BME280;23715;53.652;8.516;2023-04-10T17:21:26;101034.22;;;16.69;88.62
37878;BME280;23715;53.652;8.516;2023-04-10T17:26:26;101041.88;;;16.73;91.83
37878;BME280;23715;53.652;8.516;2023-04-10T17:31:27;101062.97;;;16.33;87.63
37878;BME280;23715;53.652;8.516;2023-04-10T17:36:26;101061.89;;;16.17;93.89
37878;BME280;23715;53.652;8.516;2023-04-10T17:41:30;101056.76;;;16.06;95.36
37878;BME280;23715;53.652;8.516;2023-04-10T17:46:32;101058.19;;;15.62;97.07
37878;BME280;23715;53.652;8.516;2023-04-10T17:51:33;101055.50;;;15.66;98.56
37878;BME280;23715;53.652;8.516;2023-04-10T17:56:33;101048.02;;;15.38;100.00
37878;BME280;23715;53.652;8.516;2023-04-10T18:01:36;100983.67;;;15.40;100.00
37878;BME280;23715;53.652;8.516;2023-04-10T18:06:36;100982.06;;;15.55;100.00
37878;BME280;23715;53.652;8.516;2023-04-10T18:11:38;100960.07;;;15.28;100.00
37878;BME280;23715;53.652;8.516;2023-04-10T18:16:39;100959.80;;;15.39;100.00
37878;BME280;23715;53.652;8.516;2023-04-10T18:21:39;100963.90;;;15.48;100.00
37878;BME280;23715;53.652;8.516;2023-04-10T18:26:43;100951.36;;;15.42;100.00
37878;BME280;23715;53.652;8.516;2023-04-10T18:31:44;100938.20;;;15.52;100.00
37878;BME280;23715;53.652;8.516;2023-04-10T18:36:44;100934.67;;;15.59;100.00
37878;BME280;23715;53.652;8.516;2023-04-10T18:41:44;100929.84;;;15.41;100.00
37878;BME280;23715;53.652;8.516;2023-04-10T18:46:45;100926.00;;;15.52;100.00
37878;BME280;23715;53.652;8.516;2023-04-10T18:51:46;100929.03;;;15.49;100.00
37878;BME280;23715;53.652;8.516;2023-04-10T18:56:47;100921.28;;;15.58;100.00
37878;BME280;23715;53.652;8.516;2023-04-10T19:01:49;100934.91;;;15.44;100.00
37878;BME280;23715;53.652;8.516;2023-04-10T19:06:49;100917.77;;;15.70;100.00
37878;BME280;23715;53.652;8.516;2023-04-10T19:11:50;100915.98;;;15.48;100.00
37878;BME280;23715;53.652;8.516;2023-04-10T19:16:51;100928.66;;;15.43;100.00
37878;BME280;23715;53.652;8.516;2023-04-10T19:21:54;100922.38;;;15.09;100.00
37878;BME280;23715;53.652;8.516;2023-04-10T19:26:55;100915.50;;;14.96;100.00
37878;BME280;23715;53.652;8.516;2023-04-10T19:31:55;100911.11;;;14.95;100.00
37878;BME280;23715;53.652;8.516;2023-04-10T19:36:56;100903.47;;;14.95;100.00
37878;BME280;23715;53.652;8.516;2023-04-10T19:41:57;100900.95;;;14.93;100.00
37878;BME280;23715;53.652;8.516;2023-04-10T19:46:57;100900.95;;;14.93;100.00
37878;BME280;23715;53.652;8.516;2023-04-10T19:51:57;100899.03;;;14.86;100.00
37878;BME280;23715;53.652;8.516;2023-04-10T19:57:00;100901.79;;;14.72;100.00
37878;BME280;23715;53.652;8.516;2023-04-10T20:02:02;100899.39;;;14.51;100.00
37878;BME280;23715;53.652;8.516;2023-04-10T20:07:04;100898.84;;;14.25;100.00
37878;BME280;23715;53.652;8.516;2023-04-10T20:12:04;100905.03;;;14.03;100.00
37878;BME280;23715;53.652;8.516;2023-04-10T20:17:10;100903.90;;;14.06;100.00
37878;BME280;23715;53.652;8.516;2023-04-10T20:22:14;100896.06;;;13.71;100.00
37878;BME280;23715;53.652;8.516;2023-04-10T20:27:16;100886.31;;;13.46;100.00
37878;BME280;23715;53.652;8.516;2023-04-10T20:32:19;100885.96;;;13.22;100.00
37878;BME280;23715;53.652;8.516;2023-04-10T20:37:20;100892.02;;;12.63;100.00
37878;BME280;23715;53.652;8.516;2023-04-10T20:42:20;100918.43;;;12.59;100.00
37878;BME280;23715;53.652;8.516;2023-04-10T20:47:21;100919.72;;;12.45;100.00
37878;BME280;23715;53.652;8.516;2023-04-10T20:52:21;100899.27;;;12.62;100.00
37878;BME280;23715;53.652;8.516;2023-04-10T20:57:24;100903.73;;;12.77;100.00
37878;BME280;23715;53.652;8.516;2023-04-10T21:02:24;100899.75;;;12.72;100.00
37878;BME280;23715;53.652;8.516;2023-04-10T21:07:24;100882.79;;;12.56;100.00
37878;BME280;23715;53.652;8.516;2023-04-10T21:12:25;100884.73;;;12.40;100.00
37878;BME280;23715;53.652;8.516;2023-04-10T21:17:27;100870.55;;;12.38;100.00
37878;BME280;23715;53.652;8.516;2023-04-10T21:22:33;100878.28;;;12.46;100.00
37878;BME280;23715;53.652;8.516;2023-04-10T21:27:34;100864.94;;;12.45;100.00
37878;BME280;23715;53.652;8.516;2023-04-10T21:32:34;100863.38;;;12.52;100.00
37878;BME280;23715;53.652;8.516;2023-04-10T21:37:34;100860.83;;;12.41;100.00
37878;BME280;23715;53.652;8.516;2023-04-10T21:42:39;100864.72;;;12.33;100.00
37878;BME280;23715;53.652;8.516;2023-04-10T21:47:40;100863.24;;;12.24;100.00
37878;BME280;23715;53.652;8.516;2023-04-10T21:52:39;100860.81;;;12.21;100.00
37878;BME280;23715;53.652;8.516;2023-04-10T21:57:40;100853.73;;;12.20;100.00
37878;BME280;23715;53.652;8.516;2023-04-10T22:02:40;100864.43;;;12.06;100.00
37878;BME280;23715;53.652;8.516;2023-04-10T22:07:40;100871.84;;;12.14;100.00
37878;BME280;23715;53.652;8.516;2023-04-10T22:12:42;100879.92;;;12.34;100.00
37878;BME280;23715;53.652;8.516;2023-04-10T22:17:43;100864.72;;;12.33;100.00
37878;BME280;23715;53.652;8.516;2023-04-10T22:22:43;100859.47;;;12.21;100.00
37878;BME280;23715;53.652;8.516;2023-04-10T22:27:45;100872.67;;;12.34;100.00
37878;BME280;23715;53.652;8.516;2023-04-10T22:32:53;100874.94;;;12.19;100.00
37878;BME280;23715;53.652;8.516;2023-04-10T22:37:54;100868.13;;;12.25;100.00
37878;BME280;23715;53.652;8.516;2023-04-10T22:42:56;100851.69;;;12.18;100.00
37878;BME280;23715;53.652;8.516;2023-04-10T22:47:57;100836.48;;;12.27;100.00
37878;BME280;23715;53.652;8.516;2023-04-10T22:53:00;100838.13;;;12.34;100.00
37878;BME280;23715;53.652;8.516;2023-04-10T22:58:01;100827.11;;;12.21;100.00
37878;BME280;23715;53.652;8.516;2023-04-10T23:03:01;100816.20;;;12.13;100.00
37878;BME280;23715;53.652;8.516;2023-04-10T23:08:01;100807.95;;;12.34;100.00
37878;BME280;23715;53.652;8.516;2023-04-10T23:13:01;100814.16;;;12.44;100.00
37878;BME280;23715;53.652;8.516;2023-04-10T23:18:01;100785.25;;;12.27;100.00
37878;BME280;23715;53.652;8.516;2023-04-10T23:23:01;100774.12;;;12.06;100.00
37878;BME280;23715;53.652;8.516;2023-04-10T23:28:02;100774.12;;;12.06;100.00
37878;BME280;23715;53.652;8.516;2023-04-10T23:33:02;100772.51;;;12.09;100.00
37878;BME280;23715;53.652;8.516;2023-04-10T23:38:03;100762.38;;;11.98;100.00
37878;BME280;23715;53.652;8.516;2023-04-10T23:43:03;100751.08;;;12.08;100.00
37878;BME280;23715;53.652;8.516;2023-04-10T23:48:05;100753.77;;;11.88;100.00
37878;BME280;23715;53.652;8.516;2023-04-10T23:53:05;100736.41;;;12.16;100.00
37878;BME280;23715;53.652;8.516;2023-04-10T23:58:06;100740.39;;;11.93;100.00
